Time;durP1;ratioP1;P1;durP2;ratioP2;P2;SDS_P1;SDS_P2;PMS_P1;PMS_P2;Temp;Humidity;BMP_temperature;BMP_pressure;BME280_temperature;BME280_humidity;BME280_pressure;Samples;Min_cycle;Max_cycle;Signal;HPM_P1;HPM_P2
2024/01/16 00:02:04;;;;;;;23.40;5.80;;;;;;;6.32;54.21;97019.35;67961;1275;1017731;-62
2024/01/16 00:05:06;;;;;;;;;;;;;;;6.39;54.26;97022.36;68016;1275;1016936;-60
2024/01/16 00:08:09;;;;;;;22.40;6.10;;;;;;;6.42;54.03;97033.20;67957;1275;1016467;-61
2024/01/16 00:11:12;;;;;;;;;;;;;;;6.39;54.28;97033.94;67931;1275;1016365;-61
2024/01/16 00:14:14;;;;;;;22.10;6.40;;;;;;;6.46;54.30;97032.09;67986;1275;1016982;-61
2024/01/16 00:17:17;;;;;;;;;;;;;;;6.46;53.90;97036.55;68008;1275;1016458;-61
2024/01/16 00:20:20;;;;;;;20.60;5.70;;;;;;;6.27;53.31;97047.30;67935;1275;1016070;-61
2024/01/16 00:23:22;;;;;;;;;;;;;;;6.24;53.15;97051.33;67976;1275;1018028;-61
2024/01/16 00:26:25;;;;;;;23.70;5.80;;;;;;;6.42;53.54;97052.98;67954;1275;1016480;-61
2024/01/16 00:29:28;;;;;;;;;;;;;;;6.63;53.00;97058.48;67995;1275;1016368;-61
2024/01/16 00:32:31;;;;;;;19.70;4.90;;;;;;;6.66;52.02;97060.83;67937;1275;1016403;-61
2024/01/16 00:35:33;;;;;;;21.10;5.20;;;;;;;6.41;50.04;97073.55;67989;1275;1016310;-61
2024/01/16 00:38:36;;;;;;;19.50;4.90;;;;;;;6.18;49.92;97076.41;67948;1275;1016329;-61
2024/01/16 00:41:39;;;;;;;19.50;5.00;;;;;;;6.04;50.05;97085.93;68020;1275;1016312;-61
2024/01/16 00:44:42;;;;;;;18.70;5.10;;;;;;;6.01;50.07;97093.54;67994;1275;1016195;-61
2024/01/16 00:47:44;;;;;;;;;;;;;;;6.00;49.92;97091.05;67932;1275;1017201;-61
2024/01/16 00:50:49;;;;;;;16.70;4.80;;;;;;;6.05;49.45;97092.55;67969;1275;1016678;-62
2024/01/16 00:53:51;;;;;;;16.30;4.20;;;;;;;6.01;49.21;97096.17;67985;1275;1015840;-61
2024/01/16 00:56:59;;;;;;;;;;;;;;;6.06;49.17;97101.73;67923;1275;1016342;-62
2024/01/16 01:00:03;;;;;;;14.60;3.80;;;;;;;6.02;48.75;97110.48;68025;1275;1016408;-61
2024/01/16 01:03:06;;;;;;;19.60;4.20;;;;;;;5.82;47.85;97121.78;67942;1275;1016438;-60
2024/01/16 01:06:09;;;;;;;20.00;4.20;;;;;;;5.77;48.21;97125.52;67985;1275;1017271;-61
2024/01/16 01:09:11;;;;;;;13.70;3.50;;;;;;;5.87;47.96;97123.67;68000;1275;1016339;-61
2024/01/16 01:12:14;;;;;;;;;;;;;;;5.77;47.75;97123.64;67911;1275;1016343;-61
2024/01/16 01:15:17;;;;;;;14.70;3.20;;;;;;;5.71;46.86;97131.66;67950;1259;1016097;-62
2024/01/16 01:18:19;;;;;;;;;;;;;;;5.66;47.02;97132.03;67984;1275;1016762;-61
2024/01/16 01:21:22;;;;;;;14.70;3.40;;;;;;;5.64;47.14;97133.55;67976;1275;1016199;-60
2024/01/16 01:24:25;;;;;;;;;;;;;;;5.51;46.86;97133.17;67986;1275;1016450;-61
2024/01/16 01:27:27;;;;;;;11.50;2.90;;;;;;;5.48;46.77;97136.87;67982;1275;1015889;-61
2024/01/16 01:30:30;;;;;;;;;;;;;;;5.50;46.98;97135.38;67963;1275;1016141;-61
2024/01/16 01:33:33;;;;;;;17.00;3.60;;;;;;;5.39;47.17;97133.64;67912;1275;1016201;-61
2024/01/16 01:36:35;;;;;;;;;;;;;;;5.37;47.11;97142.67;67992;1275;1016429;-59
2024/01/16 01:39:38;;;;;;;15.50;3.20;;;;;;;5.42;47.22;97149.23;67977;1275;1016356;-62
2024/01/16 01:42:40;;;;;;;16.50;3.00;;;;;;;5.42;47.24;97154.81;67935;1275;1016478;-61
2024/01/16 01:45:43;;;;;;;14.30;3.10;;;;;;;5.33;47.06;97157.80;67974;1275;1016302;-61
2024/01/16 01:48:46;;;;;;;;;;;;;;;5.24;47.32;97158.94;67968;1275;1016455;-61
2024/01/16 01:51:48;;;;;;;14.80;3.20;;;;;;;5.17;47.33;97156.23;68006;1275;1016313;-61
2024/01/16 01:54:51;;;;;;;;;;;;;;;5.17;47.40;97162.97;67932;1275;1016358;-62
2024/01/16 01:57:53;;;;;;;11.80;2.90;;;;;;;5.14;47.32;97161.84;68003;1275;1016457;-62
2024/01/16 02:00:56;;;;;;;;;;;;;;;5.15;47.26;97166.96;68037;1275;1016164;-62
2024/01/16 02:03:59;;;;;;;16.10;3.10;;;;;;;5.12;47.52;97173.93;67969;1275;1016577;-60
2024/01/16 02:07:01;;;;;;;;;;;;;;;5.00;47.65;97179.73;67932;1275;1017144;-61
2024/01/16 02:10:04;;;;;;;13.10;2.90;;;;;;;5.02;47.86;97182.71;67974;1275;1016294;-62
2024/01/16 02:13:07;;;;;;;14.60;3.00;;;;;;;5.09;47.77;97182.42;67945;1275;1015875;-62
2024/01/16 02:16:09;;;;;;;;;;;;;;;5.11;47.61;97185.41;67918;1275;1016334;-61
2024/01/16 02:19:12;;;;;;;14.60;3.50;;;;;;;5.13;47.60;97184.76;67966;1275;1015827;-61
2024/01/16 02:22:14;;;;;;;;;;;;;;;5.11;47.72;97195.66;67990;1275;1017230;-62
2024/01/16 02:25:17;;;;;;;14.20;3.00;;;;;;;5.02;47.95;97199.81;67923;1275;1016248;-60
2024/01/16 02:28:20;;;;;;;;;;;;;;;4.97;47.95;97195.79;67975;1275;1015952;-62
2024/01/16 02:31:22;;;;;;;20.20;3.40;;;;;;;5.03;48.03;97204.64;67983;1275;1016413;-61
2024/01/16 02:34:25;;;;;;;11.00;2.50;;;;;;;5.01;48.15;97205.45;67965;1275;1016416;-61
2024/01/16 02:37:28;;;;;;;;;;;;;;;5.07;48.09;97208.34;67936;1275;1015833;-62
2024/01/16 02:40:30;;;;;;;12.70;3.30;;;;;;;5.12;48.09;97214.65;67983;1275;1016262;-61
2024/01/16 02:43:33;;;;;;;;;;;;;;;5.12;48.03;97220.14;68022;1275;1016448;-61
2024/01/16 02:46:38;;;;;;;17.60;3.40;;;;;;;5.29;47.76;97220.15;67918;1275;1016444;-61
2024/01/16 02:49:41;;;;;;;17.70;3.70;;;;;;;5.22;48.43;97228.34;67967;1275;1016160;-61
2024/01/16 02:52:43;;;;;;;;;;;;;;;5.24;48.43;97231.71;67952;1275;1016238;-61
2024/01/16 02:55:46;;;;;;;14.90;3.60;;;;;;;5.21;48.68;97232.06;67984;1275;1016607;-61
2024/01/16 02:58:49;;;;;;;;;;;;;;;5.24;48.67;97225.99;67982;1275;1016292;-61
2024/01/16 03:01:51;;;;;;;17.10;4.00;;;;;;;5.27;48.55;97229.41;67966;1275;1016897;-61
2024/01/16 03:04:54;;;;;;;;;;;;;;;5.26;48.70;97231.38;67937;1275;1016429;-61
2024/01/16 03:07:57;;;;;;;18.20;3.80;;;;;;;5.20;48.86;97234.41;67982;1275;1015956;-61
2024/01/16 03:11:00;;;;;;;18.60;3.90;;;;;;;5.12;48.84;97240.23;67954;1275;1017431;-61
2024/01/16 03:14:03;;;;;;;16.70;3.90;;;;;;;5.11;49.15;97245.36;67951;1275;1016461;-61
2024/01/16 03:17:06;;;;;;;15.80;4.00;;;;;;;5.02;49.29;97241.25;67974;1275;1016446;-61
2024/01/16 03:20:08;;;;;;;19.80;4.10;;;;;;;5.05;49.24;97245.41;67922;1275;1016156;-60
2024/01/16 03:23:11;;;;;;;;;;;;;;;5.00;49.18;97254.55;67987;1275;1015793;-60
2024/01/16 03:26:14;;;;;;;18.00;4.10;;;;;;;4.95;49.36;97256.42;67938;1275;1016458;-61
2024/01/16 03:29:17;;;;;;;20.80;4.90;;;;;;;4.92;49.48;97260.06;67953;1275;1016454;-60
2024/01/16 03:32:20;;;;;;;;;;;;;;;4.82;49.62;97264.70;67983;1275;1016961;-60
2024/01/16 03:35:22;;;;;;;16.80;3.80;;;;;;;4.79;49.81;97265.52;67932;1275;1016432;-62
2024/01/16 03:38:25;;;;;;;;;;;;;;;4.81;49.84;97268.21;67957;1275;1016416;-61
2024/01/16 03:41:28;;;;;;;20.50;4.80;;;;;;;4.77;49.80;97268.29;67995;1275;1016167;-62
2024/01/16 03:44:30;;;;;;;17.80;4.20;;;;;;;4.74;50.06;97271.04;68009;1275;1016327;-60
2024/01/16 03:47:33;;;;;;;17.90;4.60;;;;;;;4.96;49.67;97277.13;67937;1275;1016435;-61
2024/01/16 03:50:36;;;;;;;;;;;;;;;4.99;49.37;97277.11;67991;1275;1016132;-61
2024/01/16 03:53:38;;;;;;;20.60;4.40;;;;;;;4.94;49.71;97281.96;67967;1275;1016429;-61
2024/01/16 03:56:41;;;;;;;;;;;;;;;4.89;49.76;97288.36;67942;1275;1017372;-61
2024/01/16 03:59:44;;;;;;;21.40;4.30;;;;;;;4.85;49.89;97290.28;67971;1275;1016414;-62
2024/01/16 04:02:46;;;;;;;;;;;;;;;4.75;50.18;97296.10;67967;1275;1016472;-61
2024/01/16 04:05:49;;;;;;;17.20;3.90;;;;;;;4.69;50.46;97297.01;67954;1275;1015962;-61
2024/01/16 04:08:52;;;;;;;17.10;4.30;;;;;;;4.66;50.40;97299.23;68012;1275;1016438;-61
2024/01/16 04:11:55;;;;;;;17.70;4.50;;;;;;;4.55;50.71;97302.85;67929;1275;1018025;-62
2024/01/16 04:14:57;;;;;;;21.40;4.80;;;;;;;4.31;51.60;97302.17;67963;1275;1016451;-61
2024/01/16 04:18:00;;;;;;;19.20;4.60;;;;;;;4.35;51.44;97304.92;67979;1275;1016068;-61
2024/01/16 04:21:03;;;;;;;;;;;;;;;4.36;51.03;97301.88;67914;1275;1016453;-61
2024/01/16 04:24:05;;;;;;;18.50;4.50;;;;;;;4.34;50.98;97308.98;67977;1275;1020047;-62
2024/01/16 04:27:08;;;;;;;16.60;4.20;;;;;;;4.36;51.11;97314.40;67998;1275;1016722;-60
2024/01/16 04:30:10;;;;;;;;;;;;;;;4.22;51.47;97319.52;67971;1275;1016435;-61
2024/01/16 04:33:13;;;;;;;20.40;4.50;;;;;;;4.20;51.40;97317.05;67934;1275;1016050;-61
2024/01/16 04:36:16;;;;;;;20.80;4.90;;;;;;;4.25;51.09;97323.86;67992;1275;1016447;-61
2024/01/16 04:39:19;;;;;;;;;;;;;;;4.27;50.88;97327.42;68009;1275;1016467;-61
2024/01/16 04:42:21;;;;;;;19.70;3.80;;;;;;;4.12;50.62;97324.80;67930;1275;1016266;-61
2024/01/16 04:45:24;;;;;;;19.20;3.90;;;;;;;3.90;50.62;97325.53;67983;1275;1016228;-61
2024/01/16 04:48:26;;;;;;;;;;;;;;;3.91;50.08;97327.08;67989;1275;1016360;-61
2024/01/16 04:51:29;;;;;;;16.40;3.60;;;;;;;3.88;49.43;97328.23;67975;1275;1015830;-61
2024/01/16 04:54:32;;;;;;;;;;;;;;;3.77;49.48;97332.50;67981;1275;1018806;-61
2024/01/16 04:57:35;;;;;;;16.50;3.70;;;;;;;3.90;48.84;97337.13;68006;1275;1016670;-61
2024/01/16 05:00:37;;;;;;;;;;;;;;;3.75;49.10;97341.77;67964;1275;1016093;-61
2024/01/16 05:03:40;;;;;;;18.30;4.00;;;;;;;3.79;49.03;97343.28;68004;1275;1017978;-60
2024/01/16 05:06:43;;;;;;;16.90;3.20;;;;;;;3.80;48.93;97347.73;68011;1275;1016403;-61
2024/01/16 05:09:45;;;;;;;16.80;3.20;;;;;;;3.80;49.11;97348.58;67953;1275;1016261;-61
2024/01/16 05:12:48;;;;;;;18.20;3.30;;;;;;;3.89;48.60;97351.73;67991;1275;1016444;-61
2024/01/16 05:15:51;;;;;;;15.60;3.70;;;;;;;3.82;48.82;97359.05;67939;1275;1016469;-62
2024/01/16 05:18:54;;;;;;;13.30;3.30;;;;;;;3.90;48.51;97360.49;67982;1275;1016345;-61
2024/01/16 05:21:56;;;;;;;13.90;3.40;;;;;;;3.95;48.04;97364.36;67987;1275;1016220;-61
2024/01/16 05:24:59;;;;;;;17.10;3.60;;;;;;;3.90;48.07;97368.75;67983;1275;1016480;-61
2024/01/16 05:28:02;;;;;;;;;;;;;;;3.90;48.23;97371.55;67946;1275;1016432;-61
2024/01/16 05:31:04;;;;;;;14.90;3.40;;;;;;;3.91;48.03;97377.39;67961;1275;1016154;-61
2024/01/16 05:34:07;;;;;;;;;;;;;;;3.82;48.23;97385.30;67958;1275;1016208;-61
2024/01/16 05:37:10;;;;;;;17.60;3.50;;;;;;;3.76;48.17;97390.66;67927;1275;1015757;-61
2024/01/16 05:40:13;;;;;;;17.20;3.70;;;;;;;3.76;48.34;97393.43;67973;1275;1016409;-61
2024/01/16 05:43:15;;;;;;;17.40;3.80;;;;;;;3.70;48.34;97402.40;67993;1275;1016420;-61
2024/01/16 05:46:18;;;;;;;24.60;5.20;;;;;;;3.66;48.24;97416.66;67987;1275;1015974;-61
2024/01/16 05:49:21;;;;;;;;;;;;;;;3.61;48.36;97421.75;67996;1275;1016230;-60
2024/01/16 05:52:23;;;;;;;19.90;4.70;;;;;;;3.56;48.37;97423.05;67928;1275;1016211;-61
2024/01/16 05:55:26;;;;;;;;;;;;;;;3.53;48.49;97432.55;67986;1275;1016480;-61
2024/01/16 05:58:29;;;;;;;24.60;5.90;;;;;;;3.50;48.55;97442.39;68014;1275;1016399;-60
2024/01/16 06:01:31;;;;;;;;;;;;;;;3.47;48.55;97449.30;67954;1275;1016438;-60
2024/01/16 06:04:34;;;;;;;25.70;6.90;;;;;;;3.43;48.84;97459.51;67914;1275;1016046;-60
2024/01/16 06:07:36;;;;;;;;;;;;;;;3.48;48.86;97475.48;68019;1275;1018193;-59
2024/01/16 06:10:39;;;;;;;19.30;4.70;;;;;;;3.58;48.62;97478.43;67961;1274;1016090;-61
2024/01/16 06:13:42;;;;;;;;;;;;;;;3.58;48.71;97481.02;67955;1275;1015879;-61
2024/01/16 06:16:44;;;;;;;18.40;4.80;;;;;;;3.45;49.03;97491.75;67975;1275;1016161;-61
2024/01/16 06:19:47;;;;;;;;;;;;;;;3.52;48.74;97500.58;68025;1275;1017989;-61
2024/01/16 06:22:50;;;;;;;23.00;4.70;;;;;;;3.51;48.73;97512.89;67765;1275;1016550;-61
2024/01/16 06:25:52;;;;;;;;;;;;;;;3.55;48.47;97518.52;67991;1275;1016435;-61
2024/01/16 06:29:04;;;;;;;24.00;5.30;;;;;;;3.56;48.44;97525.39;67989;1275;1016441;-61
2024/01/16 06:32:07;;;;;;;18.00;3.80;;;;;;;3.56;48.36;97526.41;67971;1275;1018136;-61
2024/01/16 06:35:10;;;;;;;;;;;;;;;3.57;48.32;97530.17;67885;1275;1016387;-61
2024/01/16 06:38:13;;;;;;;15.50;4.00;;;;;;;3.58;48.37;97530.96;67935;1275;1016260;-61
2024/01/16 06:41:20;;;;;;;21.50;4.50;;;;;;;3.67;48.22;97536.05;67927;1275;1016471;-61
2024/01/16 06:44:24;;;;;;;18.40;4.30;;;;;;;3.70;48.05;97535.91;67924;1275;1016404;-61
2024/01/16 06:47:27;;;;;;;18.30;4.50;;;;;;;3.79;47.92;97539.17;68005;1275;1016405;-62
2024/01/16 06:50:29;;;;;;;18.30;3.80;;;;;;;3.76;47.79;97549.02;67977;1275;1016331;-62
2024/01/16 06:53:32;;;;;;;19.10;4.50;;;;;;;3.74;47.95;97545.00;67938;1275;1016011;-61
2024/01/16 06:56:35;;;;;;;;;;;;;;;3.73;47.94;97550.27;67956;1275;1016471;-61
2024/01/16 06:59:37;;;;;;;17.10;4.40;;;;;;;3.60;48.08;97559.73;67954;1275;1015805;-61
2024/01/16 07:02:43;;;;;;;;;;;;;;;3.65;48.05;97562.76;67936;1275;1016471;-61
2024/01/16 07:05:45;;;;;;;18.40;4.20;;;;;;;3.61;47.66;97571.25;67940;1275;1016086;-61
2024/01/16 07:08:48;;;;;;;17.70;3.70;;;;;;;3.65;47.88;97577.66;67890;1275;1015765;-61
2024/01/16 07:11:51;;;;;;;;;;;;;;;3.64;47.90;97581.00;67993;1275;1016255;-61
2024/01/16 07:14:53;;;;;;;18.20;4.50;;;;;;;3.70;47.71;97583.40;67966;1275;1016426;-60
2024/01/16 07:17:56;;;;;;;;;;;;;;;3.74;47.49;97591.34;67934;1275;1016136;-61
2024/01/16 07:20:59;;;;;;;19.50;4.10;;;;;;;3.68;47.47;97600.32;67992;1275;1016451;-61
2024/01/16 07:24:01;;;;;;;;;;;;;;;3.74;47.52;97605.54;67993;1275;1016404;-61
2024/01/16 07:27:04;;;;;;;16.70;3.80;;;;;;;3.80;47.01;97605.55;67961;1252;1016291;-61
2024/01/16 07:30:07;;;;;;;18.40;4.10;;;;;;;3.76;46.99;97611.11;67973;1275;1016450;-61
2024/01/16 07:33:10;;;;;;;22.40;5.10;;;;;;;3.82;46.84;97611.51;67933;1275;1015677;-61
2024/01/16 07:36:12;;;;;;;;;;;;;;;3.88;46.56;97617.10;67919;1275;1016325;-61
2024/01/16 07:39:15;;;;;;;21.80;5.20;;;;;;;3.87;46.77;97616.97;67994;1275;1016497;-61
2024/01/16 07:42:17;;;;;;;20.90;5.00;;;;;;;3.97;46.33;97620.23;67961;1275;1016271;-60
2024/01/16 07:45:20;;;;;;;;;;;;;;;3.98;46.22;97625.73;67948;1275;1016333;-61
2024/01/16 07:48:23;;;;;;;20.70;4.60;;;;;;;4.13;46.03;97632.02;67956;1275;1016166;-62
2024/01/16 07:51:26;;;;;;;24.30;5.40;;;;;;;4.31;45.86;97637.94;67901;1275;1016144;-59
2024/01/16 07:54:29;;;;;;;24.20;5.80;;;;;;;4.50;45.92;97644.91;67974;1275;1016383;-61
2024/01/16 07:57:31;;;;;;;;;;;;;;;4.72;45.80;97646.93;67963;1275;1016050;-61
2024/01/16 08:00:34;;;;;;;28.90;6.80;;;;;;;4.83;45.38;97650.65;67958;1275;1016234;-61
2024/01/16 08:03:37;;;;;;;;;;;;;;;4.90;45.62;97657.91;68023;1275;1016240;-61
2024/01/16 08:06:39;;;;;;;21.60;5.70;;;;;;;5.07;45.67;97666.48;67998;1275;1016068;-61
2024/01/16 08:09:42;;;;;;;19.40;5.30;;;;;;;5.27;45.06;97670.34;67926;1275;1016153;-61
2024/01/16 08:12:45;;;;;;;;;;;;;;;5.21;45.05;97678.52;67989;1275;1016338;-61
2024/01/16 08:15:47;;;;;;;24.40;6.50;;;;;;;5.12;45.38;97681.61;68007;1275;1016333;-62
2024/01/16 08:18:50;;;;;;;22.20;5.40;;;;;;;5.09;45.73;97686.09;67928;1275;1015997;-60
2024/01/16 08:21:53;;;;;;;;;;;;;;;5.07;45.86;97686.75;67989;1275;1016477;-61
2024/01/16 08:24:55;;;;;;;24.70;5.30;;;;;;;5.00;45.96;97695.99;67984;1275;1016326;-61
2024/01/16 08:27:59;;;;;;;;;;;;;;;4.90;45.91;97699.65;67934;1275;1016421;-62
2024/01/16 08:31:01;;;;;;;21.00;4.80;;;;;;;4.75;46.33;97702.21;67963;1275;1016115;-61
2024/01/16 08:34:04;;;;;;;22.00;5.60;;;;;;;4.73;46.45;97714.64;67935;1275;1016182;-61
2024/01/16 08:37:07;;;;;;;;;;;;;;;4.67;46.66;97717.70;68020;1275;1018249;-61
2024/01/16 08:40:11;;;;;;;18.70;4.80;;;;;;;4.71;46.54;97718.18;67992;1275;1016269;-61
2024/01/16 08:43:14;;;;;;;23.10;5.20;;;;;;;4.67;46.61;97717.17;67987;1275;1016158;-61
2024/01/16 08:46:19;;;;;;;24.00;5.40;;;;;;;4.62;46.65;97717.48;67949;1275;1016595;-60
2024/01/16 08:49:26;;;;;;;25.00;6.40;;;;;;;4.68;46.55;97720.60;67984;1275;1016406;-61
2024/01/16 08:52:28;;;;;;;27.20;7.10;;;;;;;4.82;46.64;97725.04;67968;1275;1016406;-61
2024/01/16 08:55:31;;;;;;;;;;;;;;;4.89;46.15;97731.56;67958;1275;1016383;-60
2024/01/16 08:58:36;;;;;;;;;;;;;;;4.91;46.01;97737.17;68021;1275;1016399;-61
2024/01/16 09:01:41;;;;;;;28.30;7.70;;;;;;;5.04;45.98;97741.31;67999;1275;1016301;-61
2024/01/16 09:04:45;;;;;;;27.30;7.00;;;;;;;5.23;45.08;97745.83;67977;1275;1018144;-61
2024/01/16 09:07:48;;;;;;;27.80;8.00;;;;;;;5.34;45.12;97746.91;67964;1275;1016370;-60
2024/01/16 09:10:51;;;;;;;27.30;7.10;;;;;;;5.36;44.61;97748.73;67929;1275;1016429;-60
2024/01/16 09:13:54;;;;;;;;;;;;;;;5.46;44.28;97746.25;67996;1275;1016445;-61
2024/01/16 09:16:56;;;;;;;19.80;5.20;;;;;;;5.53;43.94;97751.73;68007;1275;1016295;-61
2024/01/16 09:19:59;;;;;;;;;;;;;;;5.41;43.45;97756.58;67954;1275;1016422;-61
2024/01/16 09:23:02;;;;;;;20.50;4.90;;;;;;;5.24;43.41;97764.29;67980;1275;1017024;-60
2024/01/16 09:26:04;;;;;;;19.30;4.30;;;;;;;5.40;43.57;97757.33;67971;1275;1016442;-61
2024/01/16 09:29:08;;;;;;;;;;;;;;;5.61;43.61;97757.69;67915;1275;1016412;-61
2024/01/16 09:32:11;;;;;;;14.60;3.10;;;;;;;5.72;43.19;97758.45;67984;1275;1016338;-60
2024/01/16 09:35:14;;;;;;;;;;;;;;;5.73;43.17;97758.40;68004;1275;1016910;-61
2024/01/16 09:38:16;;;;;;;13.70;3.20;;;;;;;5.74;43.32;97756.77;67992;1275;1016468;-61
2024/01/16 09:41:19;;;;;;;;;;;;;;;5.93;42.88;97754.13;67937;1275;1018390;-61
2024/01/16 09:44:22;;;;;;;12.40;3.00;;;;;;;5.96;42.90;97755.37;67979;1275;1016426;-61
2024/01/16 09:47:24;;;;;;;10.50;2.80;;;;;;;6.07;42.35;97749.52;68000;1275;1016446;-61
2024/01/16 09:50:27;;;;;;;15.30;3.20;;;;;;;6.16;41.86;97746.85;67927;1275;1016335;-61
2024/01/16 09:53:30;;;;;;;;;;;;;;;6.18;41.19;97751.08;67983;1275;1016985;-61
2024/01/16 09:56:32;;;;;;;14.60;3.00;;;;;;;6.27;40.66;97755.58;67966;1275;1016410;-62
2024/01/16 09:59:35;;;;;;;15.60;3.30;;;;;;;6.16;40.88;97761.65;67956;1275;1016611;-61
2024/01/16 10:02:38;;;;;;;;;;;;;;;6.27;40.99;97760.09;68016;1275;1016342;-61
2024/01/16 10:05:40;;;;;;;17.20;3.60;;;;;;;6.33;40.73;97766.54;68013;1275;1016207;-61
2024/01/16 10:08:43;;;;;;;16.00;3.50;;;;;;;6.40;40.31;97765.41;67927;1275;1016542;-60
2024/01/16 10:11:46;;;;;;;;;;;;;;;6.32;40.50;97772.34;68009;1275;1017193;-61
2024/01/16 10:14:50;;;;;;;14.50;2.90;;;;;;;6.24;40.49;97772.76;67974;1275;1016465;-61
2024/01/16 10:17:53;;;;;;;14.20;3.30;;;;;;;6.17;40.52;97780.52;67925;1275;1016430;-61
2024/01/16 10:20:56;;;;;;;13.30;2.90;;;;;;;6.25;40.74;97782.83;67990;1275;1015917;-61
2024/01/16 10:23:59;;;;;;;7.50;2.60;;;;;;;6.33;40.54;97787.87;68015;1275;1016457;-61
2024/01/16 10:27:02;;;;;;;;;;;;;;;6.53;40.40;97790.86;67940;1275;1016282;-61
2024/01/16 10:30:05;;;;;;;15.10;3.30;;;;;;;6.54;39.98;97793.91;67939;1275;1016435;-60
2024/01/16 10:33:08;;;;;;;14.40;3.00;;;;;;;6.49;39.74;97798.40;67959;1275;1016408;-61
2024/01/16 10:36:11;;;;;;;;;;;;;;;6.51;40.39;97798.12;67985;1275;1016414;-61
2024/01/16 10:39:14;;;;;;;17.80;3.30;;;;;;;6.65;40.65;97797.77;67925;1275;1016267;-61
2024/01/16 10:42:17;;;;;;;;;;;;;;;6.85;40.38;97802.27;67972;1275;1018901;-62
2024/01/16 10:45:20;;;;;;;16.40;3.30;;;;;;;6.95;40.10;97803.04;67951;1275;1016398;-61
2024/01/16 10:48:23;;;;;;;12.00;2.90;;;;;;;6.90;39.59;97803.34;67926;1275;1016140;-61
2024/01/16 10:51:26;;;;;;;19.90;3.70;;;;;;;6.73;39.80;97798.48;67991;1275;1017356;-61
2024/01/16 10:54:29;;;;;;;;;;;;;;;6.68;39.53;97801.21;67961;1275;1016461;-62
2024/01/16 10:57:31;;;;;;;18.60;3.90;;;;;;;6.66;39.52;97801.02;67969;1275;1018946;-62
2024/01/16 11:00:34;;;;;;;;;;;;;;;6.78;39.34;97804.77;67983;1275;1016179;-62
2024/01/16 11:03:37;;;;;;;15.80;4.00;;;;;;;6.84;39.39;97802.34;67964;1275;1016254;-61
2024/01/16 11:06:40;;;;;;;19.60;4.30;;;;;;;6.49;39.43;97804.81;67980;1275;1016412;-61
2024/01/16 11:09:43;;;;;;;;;;;;;;;6.33;39.93;97805.94;67987;1275;1016430;-61
2024/01/16 11:12:46;;;;;;;20.50;4.80;;;;;;;6.63;39.68;97810.06;67954;1275;1016396;-61
2024/01/16 11:15:49;;;;;;;19.70;4.40;;;;;;;6.70;39.49;97810.66;67972;1275;1018599;-61
2024/01/16 11:18:52;;;;;;;17.40;4.20;;;;;;;6.94;39.25;97812.30;67990;1275;1016454;-61
2024/01/16 11:21:55;;;;;;;19.30;4.40;;;;;;;6.98;38.83;97817.14;68008;1275;1016484;-61
2024/01/16 11:24:57;;;;;;;19.60;4.40;;;;;;;7.02;38.78;97821.70;67928;1275;1016542;-61
2024/01/16 11:28:01;;;;;;;19.00;5.00;;;;;;;7.16;38.80;97828.88;67990;1275;1016418;-61
2024/01/16 11:31:03;;;;;;;;;;;;;;;6.96;38.55;97828.90;67977;1275;1018419;-61
2024/01/16 11:34:06;;;;;;;16.40;4.50;;;;;;;6.79;38.91;97829.19;67941;1275;1016528;-61
2024/01/16 11:37:09;;;;;;;;;;;;;;;6.85;38.76;97831.14;68035;1275;1016328;-61
2024/01/16 11:40:11;;;;;;;16.70;4.10;;;;;;;6.85;38.85;97841.17;67942;1275;1016361;-61
2024/01/16 11:43:14;;;;;;;17.60;4.50;;;;;;;6.91;38.84;97841.50;67932;1275;1016403;-61
2024/01/16 11:46:17;;;;;;;;;;;;;;;7.04;38.93;97834.64;68025;1275;1016428;-61
2024/01/16 11:49:20;;;;;;;;;;;;;;;7.11;38.74;97837.84;67991;1275;1016116;-61
2024/01/16 11:52:22;;;;;;;19.10;4.00;;;;;;;7.33;38.63;97839.29;67973;1267;1016667;-61
2024/01/16 11:55:25;;;;;;;;;;;;;;;7.48;38.35;97838.50;67972;1275;1015997;-61
2024/01/16 11:58:28;;;;;;;17.40;3.50;;;;;;;7.53;38.12;97836.09;67979;1275;1017160;-61
2024/01/16 12:01:31;;;;;;;;;;;;;;;7.48;38.23;97835.20;67936;1275;1016357;-61
2024/01/16 12:04:34;;;;;;;22.30;5.70;;;;;;;7.55;38.83;97825.52;68017;1275;1016438;-61
2024/01/16 12:07:36;;;;;;;23.00;6.10;;;;;;;7.94;38.34;97825.80;67947;1275;1016197;-62
2024/01/16 12:10:39;;;;;;;20.40;4.80;;;;;;;8.14;37.96;97832.78;67976;1275;1016425;-61
2024/01/16 12:13:42;;;;;;;;;;;;;;;7.91;37.53;97836.55;68023;1275;1016079;-61
2024/01/16 12:16:44;;;;;;;25.20;6.90;;;;;;;7.71;38.03;97839.25;67952;1275;1016265;-62
2024/01/16 12:19:49;;;;;;;26.70;7.10;;;;;;;7.55;37.97;97848.00;68012;1275;1016423;-61
2024/01/16 12:22:52;;;;;;;25.30;7.40;;;;;;;7.49;38.07;97846.42;68021;1275;1016399;-61
2024/01/16 12:25:54;;;;;;;20.70;5.20;;;;;;;7.34;37.64;97851.36;67955;1275;1016233;-61
2024/01/16 12:28:57;;;;;;;;;;;;;;;7.40;37.73;97853.11;68004;1275;1016588;-61
2024/01/16 12:32:00;;;;;;;20.70;4.80;;;;;;;7.37;37.45;97857.29;68016;1275;1016375;-61
2024/01/16 12:35:04;;;;;;;;;;;;;;;7.31;37.97;97858.35;67961;1275;1016543;-62
2024/01/16 12:38:09;;;;;;;19.10;4.90;;;;;;;7.13;38.34;97864.48;67942;1275;1016259;-61
2024/01/16 12:41:11;;;;;;;20.20;4.70;;;;;;;7.22;38.28;97871.23;68009;1275;1017497;-61
2024/01/16 12:44:14;;;;;;;;;;;;;;;7.18;38.04;97870.31;67958;1275;1016275;-61
2024/01/16 12:47:19;;;;;;;;;;;;;;;7.13;37.81;97875.09;67995;1275;1016788;-61
2024/01/16 12:50:22;;;;;;;16.80;4.40;;;;;;;7.17;38.06;97868.07;68046;1275;1016571;-61
2024/01/16 12:53:25;;;;;;;18.60;4.20;;;;;;;7.03;37.90;97875.86;67939;1275;1016312;-61
2024/01/16 12:56:27;;;;;;;;;;;;;;;6.94;38.45;97872.79;68010;1275;1016509;-61
2024/01/16 12:59:30;;;;;;;15.90;3.60;;;;;;;6.66;38.27;97874.46;67986;1275;1017212;-61
2024/01/16 13:02:33;;;;;;;21.00;4.60;;;;;;;6.25;38.92;97884.16;67976;1275;1016879;-61
2024/01/16 13:05:36;;;;;;;;;;;;;;;6.17;39.54;97883.09;68025;1275;1016524;-60
2024/01/16 13:08:39;;;;;;;17.80;4.20;;;;;;;6.38;39.38;97880.48;67937;1275;1016490;-61
2024/01/16 13:11:42;;;;;;;18.70;4.60;;;;;;;6.33;39.31;97884.77;68031;1275;1016378;-61
2024/01/16 13:14:44;;;;;;;;;;;;;;;6.32;39.72;97891.77;68006;1275;1016175;-60
2024/01/16 13:17:47;;;;;;;19.00;5.40;;;;;;;6.32;39.64;97888.30;67955;1275;1016514;-61
2024/01/16 13:20:50;;;;;;;21.60;6.00;;;;;;;6.58;39.87;97884.34;68027;1275;1016815;-61
2024/01/16 13:23:52;;;;;;;;;;;;;;;6.83;39.29;97892.95;68019;1275;1017966;-60
2024/01/16 13:26:55;;;;;;;19.50;4.70;;;;;;;6.90;39.27;97897.70;67988;1275;1018002;-61
2024/01/16 13:29:58;;;;;;;;;;;;;;;6.93;39.36;97899.27;68006;1275;1016732;-62
2024/01/16 13:33:01;;;;;;;26.50;6.80;;;;;;;7.05;39.23;97894.19;67962;1275;1018710;-61
2024/01/16 13:36:04;;;;;;;24.50;6.30;;;;;;;6.99;39.55;97900.50;67990;1275;1015997;-62
2024/01/16 13:39:12;;;;;;;25.60;6.70;;;;;;;6.68;39.95;97904.42;67966;1275;1016847;-61
2024/01/16 13:42:18;;;;;;;24.80;6.30;;;;;;;6.53;40.23;97907.41;67988;1275;1016075;-61
2024/01/16 13:45:20;;;;;;;22.50;6.00;;;;;;;6.32;40.86;97907.37;67953;1275;1016014;-60
2024/01/16 13:48:23;;;;;;;;;;;;;;;6.32;40.77;97913.98;67973;1275;1016356;-61
2024/01/16 13:51:27;;;;;;;25.90;6.60;;;;;;;6.21;41.25;97923.83;68010;1275;1016862;-61
2024/01/16 13:54:30;;;;;;;21.80;5.70;;;;;;;6.02;41.60;97926.14;68011;1275;1016007;-61
2024/01/16 13:57:32;;;;;;;;;;;;;;;5.83;42.40;97931.33;68041;1275;1016204;-61
2024/01/16 14:00:35;;;;;;;23.00;6.40;;;;;;;5.86;42.56;97931.17;67995;1275;1016667;-61
2024/01/16 14:03:38;;;;;;;;;;;;;;;5.69;43.05;97937.30;67955;1275;1019568;-61
2024/01/16 14:06:41;;;;;;;25.30;6.30;;;;;;;5.55;43.25;97939.80;68026;1275;1016467;-62
2024/01/16 14:09:44;;;;;;;25.50;6.40;;;;;;;5.65;43.24;97944.27;67978;1275;1016268;-61
2024/01/16 14:12:47;;;;;;;19.60;4.90;;;;;;;5.45;43.83;97954.54;68007;1275;1016426;-62
2024/01/16 14:15:49;;;;;;;31.20;7.50;;;;;;;5.28;44.01;97955.26;67943;1275;1019165;-63
2024/01/16 14:18:53;;;;;;;25.40;6.10;;;;;;;5.21;44.15;97959.27;67984;1275;1017948;-61
2024/01/16 14:21:55;;;;;;;;;;;;;;;5.14;44.09;97965.70;67962;1275;1016450;-62
2024/01/16 14:24:59;;;;;;;26.20;6.80;;;;;;;5.10;44.25;97969.92;67901;1275;1016415;-62
2024/01/16 14:28:03;;;;;;;;;;;;;;;5.10;43.98;97966.10;67959;1275;1016401;-61
2024/01/16 14:31:06;;;;;;;25.30;6.40;;;;;;;5.11;44.40;97967.06;67931;1275;1016450;-62